sensor_id;sensor_type;location;lat;lon;timestamp;temperature;humidity
23371;DHT22;11858;51.056;3.712;2022-08-07T00:01:09;19.10;99.90
23371;DHT22;11858;51.056;3.712;2022-08-07T00:03:35;19.00;99.90
23371;DHT22;11858;51.056;3.712;2022-08-07T00:06:02;19.00;99.90
23371;DHT22;11858;51.056;3.712;2022-08-07T00:08:28;18.90;99.90
23371;DHT22;11858;51.056;3.712;2022-08-07T00:10:53;19.00;99.90
23371;DHT22;11858;51.056;3.712;2022-08-07T00:13:20;18.80;99.90
23371;DHT22;11858;51.056;3.712;2022-08-07T00:15:47;18.90;99.90
23371;DHT22;11858;51.056;3.712;2022-08-07T00:18:20;18.90;99.90
23371;DHT22;11858;51.056;3.712;2022-08-07T00:20:46;18.90;99.90
23371;DHT22;11858;51.056;3.712;2022-08-07T00:23:14;18.90;99.90
23371;DHT22;11858;51.056;3.712;2022-08-07T00:25:40;18.80;99.90
23371;DHT22;11858;51.056;3.712;2022-08-07T00:28:05;18.80;99.90
23371;DHT22;11858;51.056;3.712;2022-08-07T00:30:31;18.80;99.90
23371;DHT22;11858;51.056;3.712;2022-08-07T00:32:58;18.70;99.90
23371;DHT22;11858;51.056;3.712;2022-08-07T00:35:25;18.70;99.90
23371;DHT22;11858;51.056;3.712;2022-08-07T00:37:51;18.70;99.90
23371;DHT22;11858;51.056;3.712;2022-08-07T00:40:17;18.70;99.90
23371;DHT22;11858;51.056;3.712;2022-08-07T00:42:43;18.40;99.90
23371;DHT22;11858;51.056;3.712;2022-08-07T00:45:10;18.40;99.90
23371;DHT22;11858;51.056;3.712;2022-08-07T00:47:36;18.50;99.90
23371;DHT22;11858;51.056;3.712;2022-08-07T00:50:03;18.40;99.90
23371;DHT22;11858;51.056;3.712;2022-08-07T00:52:29;18.60;99.90
23371;DHT22;11858;51.056;3.712;2022-08-07T00:54:55;18.50;99.90
23371;DHT22;11858;51.056;3.712;2022-08-07T00:57:25;18.60;99.90
23371;DHT22;11858;51.056;3.712;2022-08-07T00:59:51;18.60;99.90
23371;DHT22;11858;51.056;3.712;2022-08-07T01:02:17;18.40;99.90
23371;DHT22;11858;51.056;3.712;2022-08-07T01:04:44;18.50;99.90
23371;DHT22;11858;51.056;3.712;2022-08-07T01:07:11;18.40;99.90
23371;DHT22;11858;51.056;3.712;2022-08-07T01:09:37;18.40;99.90
23371;DHT22;11858;51.056;3.712;2022-08-07T01:12:03;18.40;99.90
23371;DHT22;11858;51.056;3.712;2022-08-07T01:14:29;18.30;99.90
23371;DHT22;11858;51.056;3.712;2022-08-07T01:16:56;18.20;99.90
23371;DHT22;11858;51.056;3.712;2022-08-07T01:19:22;18.30;99.90
23371;DHT22;11858;51.056;3.712;2022-08-07T01:21:50;18.30;99.90
23371;DHT22;11858;51.056;3.712;2022-08-07T01:24:18;18.10;99.90
23371;DHT22;11858;51.056;3.712;2022-08-07T01:26:44;18.10;99.90
23371;DHT22;11858;51.056;3.712;2022-08-07T01:29:10;18.10;99.90
23371;DHT22;11858;51.056;3.712;2022-08-07T01:31:36;18.10;99.90
23371;DHT22;11858;51.056;3.712;2022-08-07T01:34:04;18.10;99.90
23371;DHT22;11858;51.056;3.712;2022-08-07T01:36:33;18.00;99.90
23371;DHT22;11858;51.056;3.712;2022-08-07T01:38:59;18.00;99.90
23371;DHT22;11858;51.056;3.712;2022-08-07T01:41:25;17.90;99.90
23371;DHT22;11858;51.056;3.712;2022-08-07T01:43:52;17.80;99.90
23371;DHT22;11858;51.056;3.712;2022-08-07T01:46:19;17.80;99.90
23371;DHT22;11858;51.056;3.712;2022-08-07T01:48:46;17.90;99.90
23371;DHT22;11858;51.056;3.712;2022-08-07T01:51:20;18.00;99.90
23371;DHT22;11858;51.056;3.712;2022-08-07T01:53:50;18.00;99.90
23371;DHT22;11858;51.056;3.712;2022-08-07T01:56:24;17.80;99.90
23371;DHT22;11858;51.056;3.712;2022-08-07T01:59:04;17.80;99.90
23371;DHT22;11858;51.056;3.712;2022-08-07T02:01:44;17.80;99.90
23371;DHT22;11858;51.056;3.712;2022-08-07T02:04:17;17.70;99.90
23371;DHT22;11858;51.056;3.712;2022-08-07T02:06:48;17.70;99.90
23371;DHT22;11858;51.056;3.712;2022-08-07T02:09:16;17.80;99.90
23371;DHT22;11858;51.056;3.712;2022-08-07T02:11:45;17.70;99.90
23371;DHT22;11858;51.056;3.712;2022-08-07T02:14:11;17.70;99.90
23371;DHT22;11858;51.056;3.712;2022-08-07T02:16:39;17.70;99.90
23371;DHT22;11858;51.056;3.712;2022-08-07T02:19:09;17.60;99.90
23371;DHT22;11858;51.056;3.712;2022-08-07T02:21:36;17.50;99.90
23371;DHT22;11858;51.056;3.712;2022-08-07T02:24:04;17.40;99.90
23371;DHT22;11858;51.056;3.712;2022-08-07T02:26:34;17.30;99.90
23371;DHT22;11858;51.056;3.712;2022-08-07T02:29:05;17.30;99.90
23371;DHT22;11858;51.056;3.712;2022-08-07T02:31:32;17.10;99.90
23371;DHT22;11858;51.056;3.712;2022-08-07T02:34:00;17.10;99.90
23371;DHT22;11858;51.056;3.712;2022-08-07T02:36:28;16.90;99.90
23371;DHT22;11858;51.056;3.712;2022-08-07T02:38:56;17.00;99.90
23371;DHT22;11858;51.056;3.712;2022-08-07T02:41:23;17.10;99.90
23371;DHT22;11858;51.056;3.712;2022-08-07T02:43:51;17.30;99.90
23371;DHT22;11858;51.056;3.712;2022-08-07T02:46:20;17.20;99.90
23371;DHT22;11858;51.056;3.712;2022-08-07T02:48:47;17.20;99.90
23371;DHT22;11858;51.056;3.712;2022-08-07T02:51:17;17.10;99.90
23371;DHT22;11858;51.056;3.712;2022-08-07T02:53:45;17.10;99.90
23371;DHT22;11858;51.056;3.712;2022-08-07T02:56:20;17.00;99.90
23371;DHT22;11858;51.056;3.712;2022-08-07T02:59:03;17.00;99.90
23371;DHT22;11858;51.056;3.712;2022-08-07T03:01:30;17.00;99.90
23371;DHT22;11858;51.056;3.712;2022-08-07T03:03:57;17.00;99.90
23371;DHT22;11858;51.056;3.712;2022-08-07T03:06:23;16.90;99.90
23371;DHT22;11858;51.056;3.712;2022-08-07T03:08:51;17.00;99.90
23371;DHT22;11858;51.056;3.712;2022-08-07T03:11:18;16.90;99.90
23371;DHT22;11858;51.056;3.712;2022-08-07T03:13:45;16.90;99.90
23371;DHT22;11858;51.056;3.712;2022-08-07T03:16:11;16.90;99.90
23371;DHT22;11858;51.056;3.712;2022-08-07T03:18:37;16.70;99.90
23371;DHT22;11858;51.056;3.712;2022-08-07T03:21:05;16.70;99.90
23371;DHT22;11858;51.056;3.712;2022-08-07T03:23:31;16.70;99.90
23371;DHT22;11858;51.056;3.712;2022-08-07T03:26:00;16.70;99.90
23371;DHT22;11858;51.056;3.712;2022-08-07T03:28:28;16.80;99.90
23371;DHT22;11858;51.056;3.712;2022-08-07T03:30:55;16.80;99.90
23371;DHT22;11858;51.056;3.712;2022-08-07T03:33:41;16.70;99.90
23371;DHT22;11858;51.056;3.712;2022-08-07T03:36:08;16.60;99.90
23371;DHT22;11858;51.056;3.712;2022-08-07T03:38:36;16.60;99.90
23371;DHT22;11858;51.056;3.712;2022-08-07T03:41:04;16.60;99.90
23371;DHT22;11858;51.056;3.712;2022-08-07T03:43:31;16.50;99.90
23371;DHT22;11858;51.056;3.712;2022-08-07T03:45:58;16.50;99.90
23371;DHT22;11858;51.056;3.712;2022-08-07T03:48:25;16.40;99.90
23371;DHT22;11858;51.056;3.712;2022-08-07T03:50:51;16.40;99.90
23371;DHT22;11858;51.056;3.712;2022-08-07T03:53:18;16.20;99.90
23371;DHT22;11858;51.056;3.712;2022-08-07T03:55:44;16.10;99.90
23371;DHT22;11858;51.056;3.712;2022-08-07T03:58:11;16.00;99.90
23371;DHT22;11858;51.056;3.712;2022-08-07T04:00:37;16.10;99.90
23371;DHT22;11858;51.056;3.712;2022-08-07T04:03:05;16.00;99.90
23371;DHT22;11858;51.056;3.712;2022-08-07T04:05:33;16.10;99.90
23371;DHT22;11858;51.056;3.712;2022-08-07T04:08:02;16.10;99.90
23371;DHT22;11858;51.056;3.712;2022-08-07T04:10:29;16.00;99.90
23371;DHT22;11858;51.056;3.712;2022-08-07T04:12:55;15.90;99.90
23371;DHT22;11858;51.056;3.712;2022-08-07T04:15:21;16.10;99.90
23371;DHT22;11858;51.056;3.712;2022-08-07T04:17:47;16.20;99.90
23371;DHT22;11858;51.056;3.712;2022-08-07T04:20:13;16.40;99.90
23371;DHT22;11858;51.056;3.712;2022-08-07T04:22:39;16.30;99.90
23371;DHT22;11858;51.056;3.712;2022-08-07T04:25:06;16.30;99.90
23371;DHT22;11858;51.056;3.712;2022-08-07T04:27:33;16.40;99.90
23371;DHT22;11858;51.056;3.712;2022-08-07T04:29:59;16.40;99.90
23371;DHT22;11858;51.056;3.712;2022-08-07T04:32:26;16.30;99.90
23371;DHT22;11858;51.056;3.712;2022-08-07T04:34:53;16.50;99.90
23371;DHT22;11858;51.056;3.712;2022-08-07T04:37:20;16.60;99.90
23371;DHT22;11858;51.056;3.712;2022-08-07T04:39:46;16.50;99.90
23371;DHT22;11858;51.056;3.712;2022-08-07T04:42:12;16.60;99.90
23371;DHT22;11858;51.056;3.712;2022-08-07T04:44:38;16.50;99.90
23371;DHT22;11858;51.056;3.712;2022-08-07T04:47:26;16.50;99.90
23371;DHT22;11858;51.056;3.712;2022-08-07T04:50:19;16.60;99.90
23371;DHT22;11858;51.056;3.712;2022-08-07T04:52:55;16.70;99.90
23371;DHT22;11858;51.056;3.712;2022-08-07T04:55:39;16.60;99.90
23371;DHT22;11858;51.056;3.712;2022-08-07T04:58:18;16.70;99.90
23371;DHT22;11858;51.056;3.712;2022-08-07T05:06:29;16.70;99.90
23371;DHT22;11858;51.056;3.712;2022-08-07T05:10:02;16.80;99.90
23371;DHT22;11858;51.056;3.712;2022-08-07T05:12:04;16.80;99.90
23371;DHT22;11858;51.056;3.712;2022-08-07T05:14:36;16.90;99.90
23371;DHT22;11858;51.056;3.712;2022-08-07T05:17:07;16.90;99.90
23371;DHT22;11858;51.056;3.712;2022-08-07T05:19:39;17.00;99.90
23371;DHT22;11858;51.056;3.712;2022-08-07T05:22:07;16.80;99.90
23371;DHT22;11858;51.056;3.712;2022-08-07T05:24:35;17.00;99.90
23371;DHT22;11858;51.056;3.712;2022-08-07T05:27:04;17.10;99.90
23371;DHT22;11858;51.056;3.712;2022-08-07T05:29:33;17.20;99.90
23371;DHT22;11858;51.056;3.712;2022-08-07T05:32:02;17.30;99.90
23371;DHT22;11858;51.056;3.712;2022-08-07T05:34:29;17.40;99.90
23371;DHT22;11858;51.056;3.712;2022-08-07T05:36:56;17.40;99.90
23371;DHT22;11858;51.056;3.712;2022-08-07T05:39:23;17.50;99.90
23371;DHT22;11858;51.056;3.712;2022-08-07T05:41:50;17.70;99.90
23371;DHT22;11858;51.056;3.712;2022-08-07T05:44:17;17.70;99.90
23371;DHT22;11858;51.056;3.712;2022-08-07T05:46:47;18.00;99.90
23371;DHT22;11858;51.056;3.712;2022-08-07T05:49:13;18.00;99.90
23371;DHT22;11858;51.056;3.712;2022-08-07T05:51:43;18.10;99.90
23371;DHT22;11858;51.056;3.712;2022-08-07T05:54:11;18.20;99.90
23371;DHT22;11858;51.056;3.712;2022-08-07T05:56:39;18.10;99.90
23371;DHT22;11858;51.056;3.712;2022-08-07T05:59:07;18.20;99.90
23371;DHT22;11858;51.056;3.712;2022-08-07T06:01:38;18.00;99.90
23371;DHT22;11858;51.056;3.712;2022-08-07T06:04:06;17.90;99.90
23371;DHT22;11858;51.056;3.712;2022-08-07T06:06:33;17.90;99.90
23371;DHT22;11858;51.056;3.712;2022-08-07T06:09:01;18.00;99.90
23371;DHT22;11858;51.056;3.712;2022-08-07T06:11:27;18.10;99.90
23371;DHT22;11858;51.056;3.712;2022-08-07T06:13:54;18.10;99.90
23371;DHT22;11858;51.056;3.712;2022-08-07T06:16:22;18.30;99.90
23371;DHT22;11858;51.056;3.712;2022-08-07T06:18:52;18.60;99.90
23371;DHT22;11858;51.056;3.712;2022-08-07T06:21:21;18.60;99.90
23371;DHT22;11858;51.056;3.712;2022-08-07T06:23:47;18.50;99.90
23371;DHT22;11858;51.056;3.712;2022-08-07T06:26:14;18.80;99.90
23371;DHT22;11858;51.056;3.712;2022-08-07T06:28:52;18.90;99.90
23371;DHT22;11858;51.056;3.712;2022-08-07T06:31:18;18.90;99.90
23371;DHT22;11858;51.056;3.712;2022-08-07T06:33:44;18.90;99.90
23371;DHT22;11858;51.056;3.712;2022-08-07T06:36:13;19.30;99.90
23371;DHT22;11858;51.056;3.712;2022-08-07T06:38:41;19.30;99.90
23371;DHT22;11858;51.056;3.712;2022-08-07T06:41:20;19.50;99.90
23371;DHT22;11858;51.056;3.712;2022-08-07T06:43:48;19.60;99.90
23371;DHT22;11858;51.056;3.712;2022-08-07T06:46:18;19.50;99.90
23371;DHT22;11858;51.056;3.712;2022-08-07T06:48:44;19.40;99.90
23371;DHT22;11858;51.056;3.712;2022-08-07T06:51:15;19.60;99.90
23371;DHT22;11858;51.056;3.712;2022-08-07T06:53:41;19.70;99.90
23371;DHT22;11858;51.056;3.712;2022-08-07T06:56:08;19.80;99.90
23371;DHT22;11858;51.056;3.712;2022-08-07T06:58:35;19.90;99.90
23371;DHT22;11858;51.056;3.712;2022-08-07T07:01:09;20.10;99.90
23371;DHT22;11858;51.056;3.712;2022-08-07T07:03:38;20.20;99.90
23371;DHT22;11858;51.056;3.712;2022-08-07T07:06:07;20.20;99.90
23371;DHT22;11858;51.056;3.712;2022-08-07T07:08:34;20.10;99.90
23371;DHT22;11858;51.056;3.712;2022-08-07T07:11:03;20.20;99.90
23371;DHT22;11858;51.056;3.712;2022-08-07T07:13:49;20.30;99.90
23371;DHT22;11858;51.056;3.712;2022-08-07T07:16:19;20.60;99.90
23371;DHT22;11858;51.056;3.712;2022-08-07T07:18:47;20.60;99.90
23371;DHT22;11858;51.056;3.712;2022-08-07T07:21:22;20.80;99.90
23371;DHT22;11858;51.056;3.712;2022-08-07T07:23:50;20.70;99.90
23371;DHT22;11858;51.056;3.712;2022-08-07T07:26:18;20.80;99.90
23371;DHT22;11858;51.056;3.712;2022-08-07T07:28:50;20.90;99.90
23371;DHT22;11858;51.056;3.712;2022-08-07T07:31:45;21.00;99.90
23371;DHT22;11858;51.056;3.712;2022-08-07T07:34:21;21.40;99.90
23371;DHT22;11858;51.056;3.712;2022-08-07T07:36:49;21.30;99.90
23371;DHT22;11858;51.056;3.712;2022-08-07T07:39:16;21.60;99.90
23371;DHT22;11858;51.056;3.712;2022-08-07T07:41:44;22.00;99.90
23371;DHT22;11858;51.056;3.712;2022-08-07T07:44:19;22.10;99.90
23371;DHT22;11858;51.056;3.712;2022-08-07T07:46:47;22.10;99.90
23371;DHT22;11858;51.056;3.712;2022-08-07T07:49:15;22.10;99.90
23371;DHT22;11858;51.056;3.712;2022-08-07T07:51:43;22.00;99.90
23371;DHT22;11858;51.056;3.712;2022-08-07T07:54:11;22.00;99.90
23371;DHT22;11858;51.056;3.712;2022-08-07T07:56:40;22.20;99.90
23371;DHT22;11858;51.056;3.712;2022-08-07T07:59:10;22.30;99.90
23371;DHT22;11858;51.056;3.712;2022-08-07T08:01:44;22.40;99.90
23371;DHT22;11858;51.056;3.712;2022-08-07T08:04:12;22.70;99.90
23371;DHT22;11858;51.056;3.712;2022-08-07T08:06:41;23.00;99.90
23371;DHT22;11858;51.056;3.712;2022-08-07T08:09:07;23.30;99.90
23371;DHT22;11858;51.056;3.712;2022-08-07T08:11:34;24.00;99.90
23371;DHT22;11858;51.056;3.712;2022-08-07T08:14:00;24.60;99.90
23371;DHT22;11858;51.056;3.712;2022-08-07T08:16:33;25.10;99.90
23371;DHT22;11858;51.056;3.712;2022-08-07T08:19:00;25.80;99.90
23371;DHT22;11858;51.056;3.712;2022-08-07T08:21:27;26.40;97.50
23371;DHT22;11858;51.056;3.712;2022-08-07T08:24:11;27.20;94.70
23371;DHT22;11858;51.056;3.712;2022-08-07T08:26:59;27.80;91.60
23371;DHT22;11858;51.056;3.712;2022-08-07T08:29:48;28.20;88.70
23371;DHT22;11858;51.056;3.712;2022-08-07T08:32:18;28.80;85.40
23371;DHT22;11858;51.056;3.712;2022-08-07T08:34:47;29.40;81.80
23371;DHT22;11858;51.056;3.712;2022-08-07T08:37:14;29.90;78.20
23371;DHT22;11858;51.056;3.712;2022-08-07T08:39:42;30.00;75.20
23371;DHT22;11858;51.056;3.712;2022-08-07T08:42:46;30.20;73.80
23371;DHT22;11858;51.056;3.712;2022-08-07T08:51:37;30.70;68.70
23371;DHT22;11858;51.056;3.712;2022-08-07T08:54:19;30.80;67.10
23371;DHT22;11858;51.056;3.712;2022-08-07T08:56:49;31.10;66.60
23371;DHT22;11858;51.056;3.712;2022-08-07T08:59:30;31.90;65.10
23371;DHT22;11858;51.056;3.712;2022-08-07T09:02:16;32.20;62.50
23371;DHT22;11858;51.056;3.712;2022-08-07T09:10:44;33.70;57.80
23371;DHT22;11858;51.056;3.712;2022-08-07T09:13:24;33.70;55.50
23371;DHT22;11858;51.056;3.712;2022-08-07T09:16:03;33.50;55.10
23371;DHT22;11858;51.056;3.712;2022-08-07T09:29:32;34.20;52.20
23371;DHT22;11858;51.056;3.712;2022-08-07T09:34:48;34.00;52.50
23371;DHT22;11858;51.056;3.712;2022-08-07T09:37:41;33.70;52.60
23371;DHT22;11858;51.056;3.712;2022-08-07T09:40:22;34.00;52.00
23371;DHT22;11858;51.056;3.712;2022-08-07T09:42:59;34.40;50.50
23371;DHT22;11858;51.056;3.712;2022-08-07T09:45:46;34.40;50.50
23371;DHT22;11858;51.056;3.712;2022-08-07T09:48:20;34.30;51.30
23371;DHT22;11858;51.056;3.712;2022-08-07T09:50:55;34.40;50.00
23371;DHT22;11858;51.056;3.712;2022-08-07T09:53:26;34.70;50.00
23371;DHT22;11858;51.056;3.712;2022-08-07T10:06:57;34.70;48.50
23371;DHT22;11858;51.056;3.712;2022-08-07T10:12:24;35.40;46.90
23371;DHT22;11858;51.056;3.712;2022-08-07T10:15:31;35.90;46.50
23371;DHT22;11858;51.056;3.712;2022-08-07T10:30:02;37.90;41.20
23371;DHT22;11858;51.056;3.712;2022-08-07T10:46:24;39.20;38.60
23371;DHT22;11858;51.056;3.712;2022-08-07T10:49:13;39.00;38.40
23371;DHT22;11858;51.056;3.712;2022-08-07T11:02:55;39.80;36.60
23371;DHT22;11858;51.056;3.712;2022-08-07T11:08:36;39.60;36.90
23371;DHT22;11858;51.056;3.712;2022-08-07T11:13:58;40.00;36.90
23371;DHT22;11858;51.056;3.712;2022-08-07T11:16:38;40.10;37.10
23371;DHT22;11858;51.056;3.712;2022-08-07T11:24:19;39.80;37.10
23371;DHT22;11858;51.056;3.712;2022-08-07T11:32:37;39.80;36.90
23371;DHT22;11858;51.056;3.712;2022-08-07T11:35:22;39.80;37.00
23371;DHT22;11858;51.056;3.712;2022-08-07T11:38:08;40.40;36.50
23371;DHT22;11858;51.056;3.712;2022-08-07T11:43:37;40.40;35.80
23371;DHT22;11858;51.056;3.712;2022-08-07T11:46:25;40.70;35.50
23371;DHT22;11858;51.056;3.712;2022-08-07T11:57:17;41.90;35.20
23371;DHT22;11858;51.056;3.712;2022-08-07T12:08:51;42.50;35.10
23371;DHT22;11858;51.056;3.712;2022-08-07T12:14:16;42.50;34.70
23371;DHT22;11858;51.056;3.712;2022-08-07T12:16:51;42.50;34.80
23371;DHT22;11858;51.056;3.712;2022-08-07T12:19:42;42.30;34.70
23371;DHT22;11858;51.056;3.712;2022-08-07T12:22:38;42.90;34.40
23371;DHT22;11858;51.056;3.712;2022-08-07T12:28:02;43.40;33.10
23371;DHT22;11858;51.056;3.712;2022-08-07T12:30:33;43.60;33.70
23371;DHT22;11858;51.056;3.712;2022-08-07T12:33:14;43.80;33.20
23371;DHT22;11858;51.056;3.712;2022-08-07T12:35:45;43.80;32.80
23371;DHT22;11858;51.056;3.712;2022-08-07T12:38:13;43.90;32.50
23371;DHT22;11858;51.056;3.712;2022-08-07T12:40:43;43.70;32.80
23371;DHT22;11858;51.056;3.712;2022-08-07T12:43:10;43.10;33.10
23371;DHT22;11858;51.056;3.712;2022-08-07T12:48:35;42.90;33.60
23371;DHT22;11858;51.056;3.712;2022-08-07T12:51:09;43.10;33.70
23371;DHT22;11858;51.056;3.712;2022-08-07T12:56:48;43.20;33.40
23371;DHT22;11858;51.056;3.712;2022-08-07T12:59:22;43.30;33.40
23371;DHT22;11858;51.056;3.712;2022-08-07T13:02:26;43.50;33.50
23371;DHT22;11858;51.056;3.712;2022-08-07T13:05:24;42.60;33.50
23371;DHT22;11858;51.056;3.712;2022-08-07T13:21:52;43.60;34.00
23371;DHT22;11858;51.056;3.712;2022-08-07T13:24:47;44.10;33.60
23371;DHT22;11858;51.056;3.712;2022-08-07T13:27:37;44.40;33.70
23371;DHT22;11858;51.056;3.712;2022-08-07T13:30:10;44.50;33.90
23371;DHT22;11858;51.056;3.712;2022-08-07T13:35:21;44.00;33.90
23371;DHT22;11858;51.056;3.712;2022-08-07T13:38:00;44.10;34.10
23371;DHT22;11858;51.056;3.712;2022-08-07T13:41:00;43.70;34.30
23371;DHT22;11858;51.056;3.712;2022-08-07T13:43:28;43.90;33.70
23371;DHT22;11858;51.056;3.712;2022-08-07T13:45:58;43.60;33.60
23371;DHT22;11858;51.056;3.712;2022-08-07T13:48:25;43.00;34.40
23371;DHT22;11858;51.056;3.712;2022-08-07T13:50:53;43.30;34.30
23371;DHT22;11858;51.056;3.712;2022-08-07T13:53:38;43.70;34.00
23371;DHT22;11858;51.056;3.712;2022-08-07T13:56:07;44.30;33.50
23371;DHT22;11858;51.056;3.712;2022-08-07T13:58:40;44.50;33.40
23371;DHT22;11858;51.056;3.712;2022-08-07T14:01:42;44.50;33.30
23371;DHT22;11858;51.056;3.712;2022-08-07T14:04:14;43.30;33.70
23371;DHT22;11858;51.056;3.712;2022-08-07T14:06:44;42.90;34.00
23371;DHT22;11858;51.056;3.712;2022-08-07T14:09:23;42.00;34.80
23371;DHT22;11858;51.056;3.712;2022-08-07T14:11:54;42.10;35.20
23371;DHT22;11858;51.056;3.712;2022-08-07T14:14:25;42.20;34.80
23371;DHT22;11858;51.056;3.712;2022-08-07T14:16:54;42.10;34.70
23371;DHT22;11858;51.056;3.712;2022-08-07T14:19:49;42.80;33.90
23371;DHT22;11858;51.056;3.712;2022-08-07T14:22:20;43.60;33.40
23371;DHT22;11858;51.056;3.712;2022-08-07T14:25:06;43.50;33.70
23371;DHT22;11858;51.056;3.712;2022-08-07T14:27:44;42.80;33.80
23371;DHT22;11858;51.056;3.712;2022-08-07T14:30:12;42.40;33.00
23371;DHT22;11858;51.056;3.712;2022-08-07T14:32:55;41.50;34.50
23371;DHT22;11858;51.056;3.712;2022-08-07T14:35:24;41.30;35.40
23371;DHT22;11858;51.056;3.712;2022-08-07T14:37:51;41.70;34.80
23371;DHT22;11858;51.056;3.712;2022-08-07T14:40:21;42.10;33.60
23371;DHT22;11858;51.056;3.712;2022-08-07T14:43:05;42.20;33.80
23371;DHT22;11858;51.056;3.712;2022-08-07T14:45:45;41.60;34.40
23371;DHT22;11858;51.056;3.712;2022-08-07T14:48:13;41.50;35.00
23371;DHT22;11858;51.056;3.712;2022-08-07T14:50:46;41.60;35.10
23371;DHT22;11858;51.056;3.712;2022-08-07T14:53:13;41.60;35.30
23371;DHT22;11858;51.056;3.712;2022-08-07T14:55:40;41.70;35.20
23371;DHT22;11858;51.056;3.712;2022-08-07T14:58:10;41.80;34.80
23371;DHT22;11858;51.056;3.712;2022-08-07T15:00:39;42.20;34.80
23371;DHT22;11858;51.056;3.712;2022-08-07T15:03:07;42.20;34.70
23371;DHT22;11858;51.056;3.712;2022-08-07T15:05:35;42.00;34.70
23371;DHT22;11858;51.056;3.712;2022-08-07T15:08:05;41.70;35.30
23371;DHT22;11858;51.056;3.712;2022-08-07T15:10:34;41.90;34.50
23371;DHT22;11858;51.056;3.712;2022-08-07T15:13:04;42.00;34.90
23371;DHT22;11858;51.056;3.712;2022-08-07T15:15:40;41.30;35.10
23371;DHT22;11858;51.056;3.712;2022-08-07T15:18:34;41.20;35.20
23371;DHT22;11858;51.056;3.712;2022-08-07T15:21:10;40.80;35.80
23371;DHT22;11858;51.056;3.712;2022-08-07T15:23:38;40.90;35.50
23371;DHT22;11858;51.056;3.712;2022-08-07T15:26:06;41.30;35.40
23371;DHT22;11858;51.056;3.712;2022-08-07T15:28:34;41.10;35.70
23371;DHT22;11858;51.056;3.712;2022-08-07T15:31:06;41.20;35.60
23371;DHT22;11858;51.056;3.712;2022-08-07T15:33:34;40.60;36.00
23371;DHT22;11858;51.056;3.712;2022-08-07T15:36:03;40.60;36.20
23371;DHT22;11858;51.056;3.712;2022-08-07T15:38:33;40.20;36.80
23371;DHT22;11858;51.056;3.712;2022-08-07T15:41:10;40.10;37.10
23371;DHT22;11858;51.056;3.712;2022-08-07T15:43:38;40.20;37.20
23371;DHT22;11858;51.056;3.712;2022-08-07T15:46:19;40.30;37.10
23371;DHT22;11858;51.056;3.712;2022-08-07T15:48:47;40.30;36.90
23371;DHT22;11858;51.056;3.712;2022-08-07T15:51:15;40.00;37.20
23371;DHT22;11858;51.056;3.712;2022-08-07T15:53:54;40.10;37.50
23371;DHT22;11858;51.056;3.712;2022-08-07T15:56:35;39.60;37.30
23371;DHT22;11858;51.056;3.712;2022-08-07T15:59:03;39.20;37.80
23371;DHT22;11858;51.056;3.712;2022-08-07T16:01:35;39.60;37.50
23371;DHT22;11858;51.056;3.712;2022-08-07T16:04:06;39.20;38.00
23371;DHT22;11858;51.056;3.712;2022-08-07T16:06:58;39.10;38.10
23371;DHT22;11858;51.056;3.712;2022-08-07T16:09:34;39.30;37.90
23371;DHT22;11858;51.056;3.712;2022-08-07T16:21:33;39.30;37.20
23371;DHT22;11858;51.056;3.712;2022-08-07T16:42:58;37.70;39.20
23371;DHT22;11858;51.056;3.712;2022-08-07T16:48:56;37.70;39.50
23371;DHT22;11858;51.056;3.712;2022-08-07T16:54:57;37.20;39.30
23371;DHT22;11858;51.056;3.712;2022-08-07T16:57:31;36.60;40.30
23371;DHT22;11858;51.056;3.712;2022-08-07T17:00:04;36.30;41.00
23371;DHT22;11858;51.056;3.712;2022-08-07T17:02:39;36.20;41.10
23371;DHT22;11858;51.056;3.712;2022-08-07T17:05:11;35.70;41.60
23371;DHT22;11858;51.056;3.712;2022-08-07T17:07:54;35.60;42.20
23371;DHT22;11858;51.056;3.712;2022-08-07T17:13:27;35.50;41.90
23371;DHT22;11858;51.056;3.712;2022-08-07T17:16:11;35.10;42.30
23371;DHT22;11858;51.056;3.712;2022-08-07T17:21:39;34.30;43.40
23371;DHT22;11858;51.056;3.712;2022-08-07T17:26:59;34.30;43.60
23371;DHT22;11858;51.056;3.712;2022-08-07T17:32:32;33.30;44.60
23371;DHT22;11858;51.056;3.712;2022-08-07T17:35:18;32.80;45.80
23371;DHT22;11858;51.056;3.712;2022-08-07T17:43:32;32.10;46.80
23371;DHT22;11858;51.056;3.712;2022-08-07T17:46:20;31.60;47.70
23371;DHT22;11858;51.056;3.712;2022-08-07T17:51:46;30.50;49.80
23371;DHT22;11858;51.056;3.712;2022-08-07T17:54:23;30.50;49.80
23371;DHT22;11858;51.056;3.712;2022-08-07T17:57:28;30.10;50.50
23371;DHT22;11858;51.056;3.712;2022-08-07T17:59:50;30.00;50.50
23371;DHT22;11858;51.056;3.712;2022-08-07T18:02:26;29.90;51.00
23371;DHT22;11858;51.056;3.712;2022-08-07T18:05:02;30.10;51.10
23371;DHT22;11858;51.056;3.712;2022-08-07T18:10:17;29.40;51.90
23371;DHT22;11858;51.056;3.712;2022-08-07T18:16:09;27.90;54.00
23371;DHT22;11858;51.056;3.712;2022-08-07T18:18:48;27.20;55.70
23371;DHT22;11858;51.056;3.712;2022-08-07T18:21:25;26.80;56.70
23371;DHT22;11858;51.056;3.712;2022-08-07T18:24:02;26.20;57.80
23371;DHT22;11858;51.056;3.712;2022-08-07T18:26:47;25.90;58.70
23371;DHT22;11858;51.056;3.712;2022-08-07T18:35:37;25.50;59.30
23371;DHT22;11858;51.056;3.712;2022-08-07T18:45:53;25.10;60.00
23371;DHT22;11858;51.056;3.712;2022-08-07T18:48:31;25.00;60.80
23371;DHT22;11858;51.056;3.712;2022-08-07T18:51:41;24.80;61.60
23371;DHT22;11858;51.056;3.712;2022-08-07T18:54:24;24.50;62.40
23371;DHT22;11858;51.056;3.712;2022-08-07T18:57:07;24.40;63.00
23371;DHT22;11858;51.056;3.712;2022-08-07T18:59:58;24.40;63.30
23371;DHT22;11858;51.056;3.712;2022-08-07T19:05:19;23.70;66.50
23371;DHT22;11858;51.056;3.712;2022-08-07T19:08:09;23.60;67.70
23371;DHT22;11858;51.056;3.712;2022-08-07T19:16:33;23.50;70.00
23371;DHT22;11858;51.056;3.712;2022-08-07T19:19:17;23.30;70.90
23371;DHT22;11858;51.056;3.712;2022-08-07T19:22:11;23.30;71.80
23371;DHT22;11858;51.056;3.712;2022-08-07T19:24:40;23.10;72.90
23371;DHT22;11858;51.056;3.712;2022-08-07T19:27:22;23.00;73.80
23371;DHT22;11858;51.056;3.712;2022-08-07T19:29:53;23.10;74.30
23371;DHT22;11858;51.056;3.712;2022-08-07T19:32:23;23.00;73.70
23371;DHT22;11858;51.056;3.712;2022-08-07T19:34:58;22.90;74.60
23371;DHT22;11858;51.056;3.712;2022-08-07T19:37:25;23.00;74.60
23371;DHT22;11858;51.056;3.712;2022-08-07T19:39:58;22.80;75.80
23371;DHT22;11858;51.056;3.712;2022-08-07T19:42:26;22.90;75.60
23371;DHT22;11858;51.056;3.712;2022-08-07T19:44:53;22.80;76.20
23371;DHT22;11858;51.056;3.712;2022-08-07T19:47:27;22.70;77.00
23371;DHT22;11858;51.056;3.712;2022-08-07T19:49:54;22.60;77.60
23371;DHT22;11858;51.056;3.712;2022-08-07T19:52:26;22.50;78.60
23371;DHT22;11858;51.056;3.712;2022-08-07T19:54:52;22.50;79.60